Sonic Adventure (DX): Time Rankings

Records: Times | Rings | Scores | Races | Bosses | Freestyle
Leaders: Times | Rings | Scores | Races | Bosses | Freestyle | Overall
Rank Player Percent Points Date
1 Gamepro011 99.3% 37 06-21-18
2 Sonicspeedruner 98.3% 92 06-21-18
3 Dashjump 94.6% 306 06-21-18
4 Jawzun 94.5% 307 06-21-18
5 DarkPolarNight 93.6% 360 06-21-18
6 drminus 91.5% 481 06-21-18
7 F-Man 91.4% 487 06-21-18
8 THC98 91.0% 506 06-21-18
9 ike6252 89.0% 620 06-21-18
10 Avento128bits 88.6% 642 06-21-18
11 francisco 88.4% 658 06-21-18
12 ethmar 88.0% 680 06-21-18
13 DarkspinesSonic 87.8% 687 06-21-18
14 Marth 87.8% 689 06-21-18
15 frankoredstrato 86.4% 769 06-21-18
16 TheRealShadnic 84.8% 860 06-21-18
17 chainchumper 84.6% 871 06-21-18
18 Paragod 83.8% 918 06-21-18
19 HyperSonic7701 83.5% 933 06-21-18
20 Calfd 83.1% 954 06-21-18
21 InferSaime 80.3% 1113 06-21-18
22 Coolfansonic 80.2% 1118 06-21-18
23 Stefan 79.1% 1185 06-21-18
24 PfoSonic 78.6% 1209 06-21-18
25 bertin 76.9% 1310 06-21-18
26 yoshifan 76.3% 1344 06-21-18
27 Dave Cramer 74.8% 1427 06-21-18
28 RPGnutter 74.5% 1443 06-21-18
29 sonicam 72.8% 1539 06-21-18
30 Cybrax 72.7% 1548 06-21-18
31 Ring Rush 70.0% 1698 06-21-18
32 mike89 69.2% 1743 06-21-18
32 Nim 69.2% 1743 06-21-18
34 NintenDan 68.9% 1759 06-21-18
35 a_moustache 67.6% 1837 06-21-18
36 chaos shadow 65.7% 1941 06-21-18
37 SkyLights 65.5% 1956 06-21-18
38 Combo 64.1% 2032 06-21-18
39 Dekuboy 63.6% 2064 06-21-18
40 Niczur 62.8% 2109 06-21-18
41 SADXTryHard 61.8% 2166 06-21-18
42 P1 Pause 61.2% 2201 06-21-18
43 Groudon199 59.3% 2308 06-21-18
44 Shadow Jacky 58.6% 2347 06-21-18
45 Game_Complete 58.5% 2352 06-21-18
46 AxlThunder 58.4% 2359 06-21-18
47 VMU Player Banned 57.6% 2402 06-21-18
48 Thorn 57.3% 2422 06-21-18
49 SB737 56.2% 2480 06-21-18
50 The Knuckles Chao 56.1% 2487 06-21-18
51 Chao_Fan 55.8% 2507 06-21-18
52 SadisticMystic 55.6% 2514 06-21-18
53 Mastakirby 55.4% 2526 06-21-18
54 Parax 55.3% 2532 06-21-18
55 OmegaDJ 54.6% 2573 06-21-18
56 KinkyCadence 54.5% 2577 06-21-18
57 LittleBigness 54.5% 2578 06-21-18
58 mauserman 54.4% 2585 06-21-18
59 Psyknux 54.2% 2596 06-21-18
60 Auriman1 54.1% 2603 06-21-18
61 magnum12 53.9% 2615 06-21-18
62 Turbos 53.5% 2633 06-21-18
63 GerbilSoft 52.9% 2667 06-21-18
64 GreatStar 52.6% 2686 06-21-18
65 Webber3000 52.3% 2704 06-21-18
66 Hipertails12 51.2% 2768 06-21-18
67 N 51.0% 2777 06-21-18
68 James_Bertolli 49.1% 2885 06-21-18
69 Cream147 48.7% 2907 06-21-18
70 welldooder64 48.2% 2937 06-21-18
71 Skylace 48.1% 2943 06-21-18
72 Quartz 47.7% 2967 06-21-18
73 Omega Rafael Santos 47.6% 2970 06-21-18
74 Psymar 47.4% 2980 06-21-18
75 Diamond 47.3% 2989 06-21-18
76 SonicWinDX 46.5% 3033 06-21-18
77 teamblackarms 46.4% 3041 06-21-18
78 Andrea Ritsu 45.7% 3077 06-21-18
79 buddychaos0415 45.3% 3101 06-21-18
80 SilverSonic 44.9% 3124 06-21-18
81 paulie9990 44.6% 3140 06-21-18
82 SilvertheAlmighty 44.3% 3160 06-21-18
83 itsPersonnal 43.7% 3190 06-21-18
84 WeegeeZV 43.7% 3191 06-21-18
85 metanightmare22 43.5% 3202 06-21-18
86 lordmetalsonic 41.3% 3326 06-21-18
87 Arch 40.9% 3353 06-21-18
88 Termon 40.0% 3402 06-21-18
89 videogamemaster777 39.9% 3405 06-21-18
90 supersonicfan 39.6% 3423 06-21-18
91 Drakodan 39.0% 3457 06-21-18
92 LilZero 38.8% 3468 06-21-18
93 Kanimayo_Jp 38.8% 3472 06-21-18
94 supersonic465 38.5% 3484 06-21-18
95 FuzZerd 38.4% 3491 06-21-18
96 JamminX42 37.9% 3520 06-21-18
97 eggFL 37.9% 3522 06-21-18
98 BigAL49 37.7% 3534 06-21-18
99 danieldude 37.0% 3570 06-21-18
100 Don 37.0% 3573 06-21-18
101 Siavash Tazari 36.4% 3608 06-21-18
102 Fr3nZy 35.9% 3635 06-21-18
103 f0rever_zer0 35.4% 3665 06-21-18
104 Cod4Scopes 34.9% 3689 06-21-18
105 Cyan Ryan 34.7% 3704 06-21-18
106 LinksDarkArrows 34.3% 3725 06-21-18
107 Therio 33.9% 3746 06-21-18
108 Austinf 33.5% 3768 06-21-18
109 elecmouse101 33.5% 3772 06-21-18
110 Staf 33.2% 3787 06-21-18
111 MiStEr_ShAoLiN 32.9% 3807 06-21-18
112 Twilisailor 32.6% 3820 06-21-18
113 ModifiedMonkee 32.3% 3840 06-21-18
114 videogamer1014 32.3% 3841 06-21-18
115 BrokenArthritis 32.1% 3847 06-21-18
116 Xia 31.8% 3868 06-21-18
117 AC-Tygo 31.5% 3884 06-21-18
118 welshmoose05 31.3% 3893 06-21-18
119 OddCook 30.7% 3929 06-21-18
120 The Great Lord Mick 30.4% 3948 06-21-18
121 Aitamen 29.9% 3975 06-21-18
122 Mcshuggets 29.8% 3980 06-21-18
123 Maxinfamily 29.8% 3983 06-21-18
124 Matt_TY 29.5% 3998 06-21-18
125 dabestgamer 29.2% 4014 06-21-18
126 joecoolgames 29.1% 4021 06-21-18
127 SuperBlitzCraig 28.6% 4047 06-21-18
128 Irregular Zero 28.6% 4050 06-21-18
129 Shadowthegreat 27.8% 4093 06-21-18
130 superjupi 27.8% 4095 06-21-18
130 SuperSonic101 27.8% 4095 06-21-18
132 Rolken 27.4% 4116 06-21-18
133 thewaytodawnnn 27.0% 4137 06-21-18
134 sonamyfan666 26.9% 4144 06-21-18
135 koinu93 26.8% 4153 06-21-18
136 Hunters13 26.7% 4157 06-21-18
136 iarebored 26.7% 4157 06-21-18
138 Spinballwizard 26.7% 4158 06-21-18
139 SaviourDC 26.5% 4168 06-21-18
140 SonicKnuckles 26.5% 4169 06-21-18
141 EngiNerd 25.5% 4227 06-21-18
142 adf 25.3% 4233 06-21-18
143 Megaman EXE565 24.6% 4275 06-21-18
144 The T 24.3% 4290 06-21-18
145 Sonic Singularity 23.8% 4319 06-21-18
146 Platformer 23.4% 4344 06-21-18
147 SeaWolf 23.1% 4360 06-21-18
148 Pokemonmaster888 23.1% 4361 06-21-18
148 timpkmn89 23.1% 4361 06-21-18
150 Swift Hobo 22.6% 4390 06-21-18
151 Sondow 22.4% 4402 06-21-18
152 Rickyman48 21.9% 4429 06-21-18
153 KitsuneYamaro 21.7% 4439 06-21-18
154 FoxBoy 21.5% 4453 06-21-18
155 Kogen Player Banned 20.9% 4487 06-21-18
155 TFEC Headshot 20.9% 4487 06-21-18
157 Jerzia 20.6% 4504 06-21-18
158 Starlight Sable 20.0% 4534 06-21-18
159 HyperSonic64 19.7% 4553 06-21-18
160 IsisDazs 19.5% 4567 06-21-18
161 crazy1993 19.2% 4580 06-21-18
162 Powerjohn25 19.2% 4582 06-21-18
163 andres430 19.1% 4585 06-21-18
164 SonicU260 18.2% 4640 06-21-18
165 MPit08 17.7% 4666 06-21-18
166 SonicAD 17.6% 4673 06-21-18
167 Swinkly 17.5% 4681 06-21-18
168 sonicd5 17.2% 4694 06-21-18
169 iSonicKid2K 17.1% 4701 06-21-18
170 dShadow 17.0% 4706 06-21-18
171 Cutiefox 16.5% 4734 06-21-18
172 Chawkk 16.5% 4737 06-21-18
173 Monkeh 16.1% 4755 06-21-18
174 Miles9999 16.0% 4763 06-21-18
175 Crispian 15.8% 4775 06-21-18
176 CoEmpathy 15.6% 4786 06-21-18
177 DaDude 15.3% 4803 06-21-18
178 Drflash55 15.2% 4808 06-21-18
179 Bass 15.1% 4816 06-21-18
180 Cruizer 14.9% 4828 06-21-18
181 Destroyer121121 14.8% 4831 06-21-18
182 Badlex727 14.8% 4833 06-21-18
183 superiorsonic 14.6% 4845 06-21-18
184 neaolas 14.5% 4847 06-21-18
185 zapp 14.4% 4853 06-21-18
186 Yish 14.3% 4858 06-21-18
187 UninspiredUsername 14.2% 4865 06-21-18
188 gamefreak1292 13.9% 4884 06-21-18
189 Cooljay 13.7% 4893 06-21-18
190 Sora_yx 13.3% 4918 06-21-18
191 Chaos_Overlord 12.9% 4941 06-21-18
192 GarnetPrincess 12.6% 4955 06-21-18
193 Valfore 12.4% 4967 06-21-18
194 soniccoloursunleashed 12.0% 4990 06-21-18
195 Dage4Aquatic 12.0% 4992 06-21-18
196 ShinigamiMachine 11.8% 5003 06-21-18
197 booo95 11.4% 5022 06-21-18
198 Sonicsuperstar1 11.3% 5030 06-21-18
199 SirTobbii 11.0% 5047 06-21-18
200 sonicspeed 11.0% 5049 06-21-18
201 Werey 10.9% 5055 06-21-18
202 FocusSight64 10.8% 5058 06-21-18
203 Mo Player Banned 10.7% 5064 06-21-18
204 Jua Rever 10.7% 5066 06-21-18
205 Sithwarrior26 9.6% 5124 06-21-18
206 Venick409 9.6% 5126 06-21-18
207 nman36 9.6% 5127 06-21-18
208 ingx24 9.1% 5154 06-21-18
209 CyberShadow 9.0% 5161 06-21-18
210 dekki1234 9.0% 5163 06-21-18
211 Fozer 8.7% 5179 06-21-18
212 Colomb_30 8.6% 5182 06-21-18
213 Egor305 8.5% 5189 06-21-18
214 Regano1000 8.3% 5198 06-21-18
215 1stKirbyever 8.1% 5211 06-21-18
216 douglas 8.1% 5212 06-21-18
217 nuckrieg 8.0% 5220 06-21-18
218 TimTH 7.8% 5228 06-21-18
219 Brian_pso 7.7% 5234 06-21-18
220 wheatrich 7.6% 5242 06-21-18
221 Zip 7.5% 5247 06-21-18
222 Th4tN1nj4Turtl3 7.5% 5248 06-21-18
223 TakaRikka 7.4% 5253 06-21-18
224 niscool 7.2% 5263 06-21-18
225 Mariosonic15 7.0% 5273 06-21-18
226 ieatatsonic 6.7% 5289 06-21-18
226 Triseena 6.7% 5289 06-21-18
228 MStitomix 6.7% 5290 06-21-18
229 HermitHelmet 6.6% 5294 06-21-18
230 Artie 6.3% 5312 06-21-18
231 Cort_pso 6.3% 5314 06-21-18
232 Got4n 6.3% 5315 06-21-18
233 BlankTH 6.0% 5328 06-21-18
234 Jose_15 6.0% 5332 06-21-18
235 SuperSonicfan9595 5.7% 5346 06-21-18
236 Richied 5.7% 5350 06-21-18
237 Ace747 5.6% 5356 06-21-18
238 HHNNBBHHN 5.4% 5365 06-21-18
239 Aiko 5.3% 5372 06-21-18
240 Paixii 5.3% 5373 06-21-18
241 slade23 5.0% 5386 06-21-18
242 Mankster101 5.0% 5390 06-21-18
243 BallzeH 4.9% 5391 06-21-18
244 FSSRandomvids 4.9% 5395 06-21-18
245 ArcticDragon 4.8% 5396 06-21-18
246 BecauseWarAnvil 4.8% 5397 06-21-18
246 PsyBorg 4.8% 5397 06-21-18
248 Jamixesa 4.7% 5403 06-21-18
249 Nickson98 4.7% 5407 06-21-18
250 Crydio 4.5% 5414 06-21-18
251 TheUltraBlur 4.4% 5419 06-21-18
252 MarewBFN 4.3% 5430 06-21-18
253 tal39h 4.2% 5431 06-21-18
254 stanski 4.2% 5433 06-21-18
255 ALundstrom10 4.2% 5434 06-21-18
256 knuckles_sonic8 4.0% 5446 06-21-18
257 Blue Infamy 3.9% 5448 06-21-18
258 p0ker 3.9% 5449 06-21-18
259 ErrortheCucco 3.7% 5459 06-21-18
260 Rikum22 3.7% 5462 06-21-18
261 sonic1001 3.5% 5470 06-21-18
262 TheChaosEmeraIds 3.5% 5474 06-21-18
263 syco1098 3.4% 5477 06-21-18
264 AJSIV 3.4% 5479 06-21-18
265 Sonic the Hedgehod16 3.3% 5482 06-21-18
266 ASINISTERTACO 3.2% 5489 06-21-18
267 sonicfan9 3.1% 5495 06-21-18
268 MK 3.0% 5503 06-21-18
268 themachoman202 3.0% 5503 06-21-18
270 Fivavoa 2.8% 5514 06-21-18
271 Mr. Jones 2.8% 5515 06-21-18
272 djmat 2.7% 5517 06-21-18
273 arcfx1985 2.7% 5518 06-21-18
273 BlackArmsShadow 2.7% 5518 06-21-18
275 ptorflaxendrosis 2.6% 5522 06-21-18
275 Sonique Hedgehog 2.6% 5522 06-21-18
277 FlandreScarlet9999vr 2.6% 5526 06-21-18
278 Zeldocto 2.5% 5528 06-21-18
279 BeeAwwb 2.5% 5532 06-21-18
279 KaM Mark MaK 2.5% 5532 06-21-18
281 ShadouZaHejjihoggu 2.3% 5539 06-21-18
282 darkstarblaze 2.3% 5541 06-21-18
283 Sarger001 2.2% 5544 06-21-18
284 Sonic The Star 2.2% 5547 06-21-18
285 darkersupershadic 2.2% 5548 06-21-18
286 SpiritDragon1995 2.2% 5549 06-21-18
287 sonic29887 2.0% 5555 06-21-18
288 Grady219 2.0% 5556 06-21-18
289 BioShadow 2.0% 5557 06-21-18
290 shadowblast63 Player Banned 1.9% 5561 06-21-18
291 Jawaah 1.9% 5563 06-21-18
292 Antek 1.9% 5565 06-21-18
293 Klaus 1.8% 5567 06-21-18
294 SkyBon 1.7% 5572 06-21-18
295 Shanekilz 1.4% 5589 06-21-18
296 isaihtb11 1.4% 5593 06-21-18
297 zaktu40 1.3% 5595 06-21-18
298 OhNoes! 1.3% 5596 06-21-18
299 gaara1234 1.3% 5598 06-21-18
300 S-MS32X-S 1.2% 5602 06-21-18
301 MastaToken 1.2% 5605 06-21-18
302 Mister_Slick 1.0% 5612 06-21-18
303 ArthurVGCP 1.0% 5613 06-21-18
304 Rush Hero 1.0% 5615 06-21-18
304 Sonic06Fan 1.0% 5615 06-21-18
306 ChaosNexuss 1.0% 5616 06-21-18
307 SonicMega167 0.9% 5621 06-21-18
308 oTaiIilLsS 0.8% 5623 06-21-18
309 gamed00d 0.8% 5624 06-21-18
309 SilverK 0.8% 5624 06-21-18
311 Heroes_Hater 0.7% 5632 06-21-18
312 Redd 0.7% 5634 06-21-18
313 Burningskull123 0.5% 5640 06-21-18
314 Sonicontherun 0.4% 5651 06-21-18
315 antiwwe 0.2% 5657 06-21-18
316 Iwannabelink 0.2% 5659 06-21-18
317 Genuine Hedgehog 0.2% 5660 06-21-18
317 SonataSpinDash 0.2% 5660 06-21-18
319 dragondragon18 0.1% 5664 06-21-18
320 SonicK100 0.1% 5666 06-21-18
321 Tyrouble 0.0% 5671 06-21-18
322 LancexExWx 0.0% 5674 06-21-18
322 neji_hyuuga 0.0% 5674 06-21-18
322 Over 0.0% 5674 06-21-18
322 sdj6707 Player Banned 0.0% 5674 06-21-18
322 Tran Sonic Fan Player Banned 0.0% 5674 06-21-18

This page is using the New Data Table System. [FUTURE]

Game ID: 3 | Category ID: 1
Hits: 2,510 | Hits This Month: 17 | DB Calls: 25 | Mem Usage: 5.47 MB | Time: 0.18s | Printable

The Sonic Center v3.9
Copyright 2003-2011 by The Sonic Center Team.